Time;durP1;ratioP1;P1;durP2;ratioP2;P2;SDS_P1;SDS_P2;PMS_P1;PMS_P2;Temp;Humidity;BMP_temperature;BMP_pressure;BME280_temperature;BME280_humidity;BME280_pressure;Samples;Min_cycle;Max_cycle;Signal;HPM_P1;HPM_P2
2023/04/26 00:00:21;;;;;;;5.15;2.55;;;12.50;99.90;;;;;;5114499;28;20319;-73
2023/04/26 00:02:49;;;;;;;4.65;2.92;;;12.40;99.90;;;;;;5114877;28;20239;-72
2023/04/26 00:05:18;;;;;;;3.90;3.25;;;12.40;99.90;;;;;;5114938;28;20295;-72
2023/04/26 00:07:45;;;;;;;2.88;2.63;;;12.50;99.90;;;;;;5114515;28;20197;-73
2023/04/26 00:10:13;;;;;;;3.97;3.25;;;12.40;99.90;;;;;;5114598;28;20209;-74
2023/04/26 00:12:41;;;;;;;2.65;2.45;;;12.50;99.90;;;;;;5113869;28;20669;-74
2023/04/26 00:15:09;;;;;;;3.35;2.25;;;12.40;99.90;;;;;;5114550;28;20207;-77
2023/04/26 00:17:36;;;;;;;2.95;2.55;;;12.50;99.90;;;;;;5113781;28;20201;-73
2023/04/26 00:20:08;;;;;;;2.83;2.40;;;12.50;99.90;;;;;;5114336;28;20231;-73
2023/04/26 00:22:35;;;;;;;2.92;2.42;;;12.50;99.90;;;;;;5113844;28;20574;-75
2023/04/26 00:25:02;;;;;;;3.78;2.72;;;12.50;99.90;;;;;;5114233;28;20237;-76
2023/04/26 00:27:29;;;;;;;2.08;1.98;;;12.50;99.90;;;;;;5113698;28;20240;-75
2023/04/26 00:29:56;;;;;;;2.30;2.10;;;12.60;99.90;;;;;;5113991;28;20233;-75
2023/04/26 00:32:23;;;;;;;5.00;2.60;;;12.60;99.90;;;;;;5113772;28;20236;-73
2023/04/26 00:34:49;;;;;;;3.28;2.97;;;12.60;99.90;;;;;;5114336;28;20240;-73
2023/04/26 00:37:18;;;;;;;2.70;2.30;;;12.60;99.90;;;;;;5114354;28;20630;-72
2023/04/26 00:39:45;;;;;;;2.58;2.38;;;12.60;99.90;;;;;;5113395;28;20264;-73
2023/04/26 00:42:12;;;;;;;3.63;2.65;;;12.50;99.90;;;;;;5113891;28;20197;-72
2023/04/26 00:44:39;;;;;;;3.22;2.90;;;12.50;99.90;;;;;;5112694;28;20696;-73
2023/04/26 00:47:06;;;;;;;2.92;2.63;;;12.60;99.90;;;;;;5113844;28;20200;-75
2023/04/26 00:49:33;;;;;;;3.17;2.88;;;12.60;99.90;;;;;;5113343;28;20236;-74
2023/04/26 00:52:00;;;;;;;3.90;2.58;;;12.50;99.90;;;;;;5113745;28;20232;-74
2023/04/26 00:54:29;;;;;;;2.53;2.15;;;12.50;99.90;;;;;;5113033;28;20246;-73
2023/04/26 00:56:57;;;;;;;3.50;3.20;;;12.50;99.90;;;;;;5113472;28;20564;-72
2023/04/26 00:59:24;;;;;;;3.20;2.90;;;12.60;99.90;;;;;;5112999;28;20241;-73
2023/04/26 01:01:51;;;;;;;3.70;2.50;;;12.60;99.90;;;;;;5113558;28;20233;-74
2023/04/26 01:04:18;;;;;;;14.45;3.47;;;12.60;99.90;;;;;;5113641;28;20240;-73
2023/04/26 01:06:45;;;;;;;3.38;2.67;;;12.50;99.90;;;;;;5112871;28;20208;-73
2023/04/26 01:09:14;;;;;;;3.65;2.83;;;12.60;99.90;;;;;;5113245;28;20237;-73
2023/04/26 01:11:43;;;;;;;3.35;3.05;;;12.60;99.90;;;;;;5112823;28;20695;-73
2023/04/26 01:14:10;;;;;;;4.63;3.53;;;12.60;99.90;;;;;;5113023;28;20250;-73
2023/04/26 01:16:38;;;;;;;3.28;2.63;;;12.60;99.90;;;;;;5112817;28;20695;-73
2023/04/26 01:19:09;;;;;;;3.35;2.75;;;12.60;99.90;;;;;;5113090;28;20201;-73
2023/04/26 01:21:36;;;;;;;3.88;2.75;;;12.60;99.90;;;;;;5112607;28;20264;-72
2023/04/26 01:24:05;;;;;;;3.72;3.05;;;12.60;99.90;;;;;;5113102;28;20197;-72
2023/04/26 01:26:32;;;;;;;6.10;3.10;;;12.60;99.90;;;;;;5112797;28;20201;-74
2023/04/26 01:29:00;;;;;;;4.07;3.25;;;12.60;99.90;;;;;;5112830;28;20549;-73
2023/04/26 01:31:27;;;;;;;4.53;3.15;;;12.60;99.90;;;;;;5112634;28;20321;-73
2023/04/26 01:33:54;;;;;;;4.10;3.72;;;12.60;99.90;;;;;;5113108;28;20233;-78
2023/04/26 01:36:21;;;;;;;4.53;3.63;;;12.60;99.90;;;;;;5113562;28;20237;-82
2023/04/26 01:38:48;;;;;;;4.03;3.63;;;12.60;99.90;;;;;;5113525;28;20243;-78
2023/04/26 01:41:16;;;;;;;5.95;3.83;;;12.60;99.90;;;;;;5113111;28;20290;-79
2023/04/26 01:43:43;;;;;;;5.13;4.43;;;12.60;99.90;;;;;;5112146;28;20669;-81
2023/04/26 01:46:10;;;;;;;3.63;3.33;;;12.60;99.90;;;;;;5112735;28;20297;-76
2023/04/26 01:48:36;;;;;;;3.95;3.65;;;12.60;99.90;;;;;;5112056;28;20201;-81
2023/04/26 01:51:04;;;;;;;3.80;3.50;;;12.60;99.90;;;;;;5112513;28;20680;-80
2023/04/26 01:53:30;;;;;;;3.92;3.50;;;12.60;99.90;;;;;;5112111;28;20205;-78
2023/04/26 01:56:01;;;;;;;6.97;4.25;;;12.70;99.90;;;;;;5111695;28;20250;-80
2023/04/26 01:58:29;;;;;;;7.57;4.10;;;12.70;99.90;;;;;;5111714;28;20590;-78
2023/04/26 02:00:57;;;;;;;5.50;4.38;;;12.70;99.90;;;;;;5112140;28;20719;-77
2023/04/26 02:03:24;;;;;;;5.75;4.10;;;12.70;99.90;;;;;;5111799;28;20243;-78
2023/04/26 02:05:51;;;;;;;4.22;3.83;;;12.70;99.90;;;;;;5112150;28;20630;-81
2023/04/26 02:08:18;;;;;;;4.00;3.50;;;12.70;99.90;;;;;;5112545;28;20232;-78
2023/04/26 02:10:45;;;;;;;4.15;3.70;;;12.70;99.90;;;;;;5111870;28;20251;-78
2023/04/26 02:13:12;;;;;;;4.68;3.90;;;12.70;99.90;;;;;;5111848;28;20660;-77
2023/04/26 02:15:41;;;;;;;5.25;3.88;;;12.70;99.90;;;;;;5111585;28;20236;-72
2023/04/26 02:18:08;;;;;;;7.70;5.07;;;12.70;99.90;;;;;;5111884;28;20197;-73
2023/04/26 02:20:35;;;;;;;4.70;4.05;;;12.70;99.90;;;;;;5111750;28;20667;-73
2023/04/26 02:23:02;;;;;;;5.20;4.30;;;12.70;99.90;;;;;;5111944;28;20201;-73
2023/04/26 02:25:29;;;;;;;6.00;4.55;;;12.70;99.90;;;;;;5111536;28;20269;-73
2023/04/26 02:27:56;;;;;;;3.95;3.65;;;12.70;99.90;;;;;;5111569;28;20329;-73
2023/04/26 02:30:23;;;;;;;4.20;3.83;;;12.70;99.90;;;;;;5111309;28;20636;-73
2023/04/26 02:32:53;;;;;;;4.40;4.00;;;12.70;99.90;;;;;;5112221;28;20254;-73
2023/04/26 02:35:21;;;;;;;4.90;4.40;;;12.70;99.90;;;;;;5111833;28;20675;-74
2023/04/26 02:37:48;;;;;;;4.88;4.43;;;12.70;99.90;;;;;;5111970;28;20285;-75
2023/04/26 02:40:15;;;;;;;5.03;4.53;;;12.70;99.90;;;;;;5111657;28;20208;-73
2023/04/26 02:42:42;;;;;;;5.15;4.65;;;12.70;99.90;;;;;;5110728;28;20632;-73
2023/04/26 02:45:09;;;;;;;5.75;4.85;;;12.70;99.90;;;;;;5111747;28;20236;-73
2023/04/26 02:47:37;;;;;;;4.60;4.20;;;12.70;99.90;;;;;;5111262;28;20244;-73
2023/04/26 02:50:07;;;;;;;5.20;4.80;;;12.70;99.90;;;;;;5111568;28;20201;-74
2023/04/26 02:52:34;;;;;;;5.15;4.68;;;12.70;99.90;;;;;;5111214;28;20201;-73
2023/04/26 02:55:01;;;;;;;7.45;5.13;;;12.70;99.90;;;;;;5111066;28;20626;-74
2023/04/26 02:57:28;;;;;;;5.28;4.78;;;12.70;99.90;;;;;;5111250;28;20200;-73
2023/04/26 02:59:55;;;;;;;5.45;4.95;;;12.70;99.90;;;;;;5111596;28;20285;-73
2023/04/26 03:02:22;;;;;;;5.97;4.70;;;12.70;99.90;;;;;;5111043;28;20309;-73
2023/04/26 03:04:49;;;;;;;5.32;4.47;;;12.70;99.90;;;;;;5111709;28;20273;-72
2023/04/26 03:07:18;;;;;;;4.18;3.78;;;12.70;99.90;;;;;;5111540;28;20232;-74
2023/04/26 03:09:44;;;;;;;4.65;4.25;;;12.70;99.90;;;;;;5110577;28;20289;-73
2023/04/26 03:12:12;;;;;;;5.45;5.05;;;12.70;99.90;;;;;;5110974;28;20247;-72
2023/04/26 03:14:39;;;;;;;5.55;4.30;;;12.80;99.90;;;;;;5110954;28;20232;-74
2023/04/26 03:17:06;;;;;;;5.05;4.55;;;12.70;99.90;;;;;;5111124;28;20251;-73
2023/04/26 03:19:33;;;;;;;5.38;4.88;;;12.70;99.90;;;;;;5110922;28;20200;-73
2023/04/26 03:22:00;;;;;;;5.22;4.13;;;12.70;99.90;;;;;;5111085;28;20268;-78
2023/04/26 03:24:28;;;;;;;5.63;5.05;;;12.70;99.90;;;;;;5110526;28;20639;-78
2023/04/26 03:26:55;;;;;;;4.88;4.35;;;12.80;99.90;;;;;;5111022;28;20241;-80
2023/04/26 03:29:22;;;;;;;5.43;4.93;;;12.70;99.90;;;;;;5110877;28;20251;-73
2023/04/26 03:31:49;;;;;;;5.55;4.07;;;12.80;99.90;;;;;;5111317;28;20676;-79
2023/04/26 03:34:16;;;;;;;4.72;4.00;;;12.80;99.90;;;;;;5111327;28;20668;-76
2023/04/26 03:36:43;;;;;;;6.53;4.82;;;12.80;99.90;;;;;;5110509;28;20668;-80
2023/04/26 03:39:10;;;;;;;4.88;4.35;;;12.80;99.90;;;;;;5111006;28;20844;-78
2023/04/26 03:41:39;;;;;;;5.60;5.03;;;12.80;99.90;;;;;;5110472;28;20704;-78
2023/04/26 03:44:06;;;;;;;5.15;4.32;;;12.80;99.90;;;;;;5111098;28;20228;-78
2023/04/26 03:46:33;;;;;;;5.75;5.10;;;12.80;99.90;;;;;;5110513;28;20291;-77
2023/04/26 03:49:00;;;;;;;4.45;4.05;;;12.80;99.90;;;;;;5110966;28;20233;-79
2023/04/26 03:51:27;;;;;;;5.43;4.68;;;12.80;99.90;;;;;;5110356;28;20237;-78
2023/04/26 03:53:54;;;;;;;10.95;4.70;;;12.80;99.90;;;;;;5110729;28;20211;-79
2023/04/26 03:56:21;;;;;;;4.88;4.38;;;12.90;99.90;;;;;;5111085;28;20236;-75
2023/04/26 03:58:49;;;;;;;5.45;4.95;;;12.90;99.90;;;;;;5111214;28;20228;-73
2023/04/26 04:01:16;;;;;;;6.25;5.57;;;12.90;99.90;;;;;;5111128;28;20275;-73
2023/04/26 04:03:43;;;;;;;8.05;4.63;;;12.90;99.90;;;;;;5110275;28;20207;-73
2023/04/26 04:06:11;;;;;;;6.32;4.53;;;13.00;99.90;;;;;;5110516;28;20633;-73
2023/04/26 04:08:38;;;;;;;4.80;4.28;;;13.00;99.90;;;;;;5110054;28;20681;-73
2023/04/26 04:11:05;;;;;;;6.70;4.88;;;12.90;99.90;;;;;;5110495;28;20304;-73
2023/04/26 04:13:32;;;;;;;5.38;4.88;;;12.90;99.90;;;;;;5110357;28;20229;-73
2023/04/26 04:16:00;;;;;;;6.78;5.30;;;13.00;99.90;;;;;;5110661;28;20232;-74
2023/04/26 04:18:27;;;;;;;7.40;5.32;;;12.90;99.90;;;;;;5110308;28;20232;-75
2023/04/26 04:20:54;;;;;;;6.28;4.72;;;12.90;99.90;;;;;;5114147;28;20224;-73
2023/04/26 04:23:21;;;;;;;6.18;4.28;;;13.00;99.90;;;;;;5114194;28;20639;-73
2023/04/26 04:25:50;;;;;;;6.28;5.43;;;13.00;99.90;;;;;;5114647;28;20258;-73
2023/04/26 04:28:17;;;;;;;6.75;5.78;;;13.00;99.90;;;;;;5114485;28;20201;-73
2023/04/26 04:30:45;;;;;;;6.35;5.32;;;12.90;99.90;;;;;;5113697;28;20258;-73
2023/04/26 04:33:13;;;;;;;6.70;5.65;;;13.00;99.90;;;;;;5114276;28;20205;-73
2023/04/26 04:35:42;;;;;;;7.47;5.70;;;13.00;99.90;;;;;;5114096;28;20208;-73
2023/04/26 04:38:09;;;;;;;6.20;5.45;;;13.00;99.90;;;;;;5113912;28;20208;-73
2023/04/26 04:40:36;;;;;;;6.80;5.65;;;13.00;99.90;;;;;;5113446;28;20616;-74
2023/04/26 04:43:03;;;;;;;5.35;4.85;;;13.00;99.90;;;;;;5113754;28;20200;-73
2023/04/26 04:45:30;;;;;;;7.43;6.22;;;13.00;99.90;;;;;;5113427;28;20209;-73
2023/04/26 04:47:57;;;;;;;8.85;5.68;;;13.00;99.90;;;;;;5113975;28;20247;-78
2023/04/26 04:50:25;;;;;;;6.80;5.32;;;13.00;99.90;;;;;;5113493;28;20207;-81
2023/04/26 04:52:52;;;;;;;7.90;6.05;;;13.10;99.90;;;;;;5113517;28;20224;-79
2023/04/26 04:55:19;;;;;;;8.10;6.10;;;13.00;99.90;;;;;;5113941;28;20236;-73
2023/04/26 04:57:46;;;;;;;7.03;6.30;;;13.10;99.90;;;;;;5112918;28;20236;-73
2023/04/26 05:00:14;;;;;;;7.13;5.55;;;13.10;99.90;;;;;;5113357;28;20702;-73
2023/04/26 05:02:41;;;;;;;8.40;5.95;;;13.00;99.90;;;;;;5114165;28;20326;-74
2023/04/26 05:05:10;;;;;;;6.43;5.72;;;13.10;1.00;;;;;;5115772;28;20246;-82
2023/04/26 05:07:38;;;;;;;9.43;6.03;;;13.10;1.00;;;;;;5110958;27;20209;-80
2023/04/26 05:10:06;;;;;;;6.82;5.85;;;13.10;1.00;;;;;;5104669;28;20691;-79
2023/04/26 05:12:34;;;;;;;8.43;6.35;;;13.10;1.00;;;;;;5111689;28;20292;-80
2023/04/26 05:15:01;;;;;;;8.82;6.43;;;13.10;1.00;;;;;;5112917;28;20284;-84
2023/04/26 05:17:29;;;;;;;8.68;7.18;;;13.10;1.00;;;;;;5112437;28;20293;-76
2023/04/26 05:19:56;;;;;;;12.27;9.02;;;13.20;1.00;;;;;;5112404;28;20208;-84
2023/04/26 05:22:23;;;;;;;11.50;8.30;;;13.20;1.00;;;;;;5112041;28;20275;-76
2023/04/26 05:24:51;;;;;;;12.70;10.40;;;13.20;1.00;;;;;;5112691;28;20337;-72
2023/04/26 05:27:18;;;;;;;10.07;8.50;;;13.20;1.00;;;;;;5097235;28;20641;-77
2023/04/26 05:29:45;;;;;;;9.95;8.60;;;13.10;1.00;;;;;;5092248;28;20205;-72
2023/04/26 05:32:12;;;;;;;9.82;8.93;;;13.20;1.00;;;;;;5091904;28;20204;-81
2023/04/26 05:34:39;;;;;;;11.38;8.30;;;13.20;1.00;;;;;;5108411;28;20288;-79
2023/04/26 05:37:06;;;;;;;9.13;8.10;;;13.30;1.00;;;;;;5112380;28;20240;-79
2023/04/26 05:39:33;;;;;;;8.82;7.93;;;13.30;1.00;;;;;;5104255;28;20239;-75
2023/04/26 05:42:02;;;;;;;13.20;8.27;;;13.30;1.00;;;;;;5112530;28;20727;-75
2023/04/26 05:44:29;;;;;;;9.13;8.00;;;13.40;1.00;;;;;;5112199;28;20575;-76
2023/04/26 05:46:56;;;;;;;11.18;7.80;;;13.40;1.00;;;;;;5112738;28;20217;-75
2023/04/26 05:49:23;;;;;;;9.32;7.10;;;13.40;1.00;;;;;;5111634;28;20236;-75
2023/04/26 05:51:49;;;;;;;9.40;8.35;;;13.40;1.00;;;;;;5111483;27;20236;-76
2023/04/26 05:54:16;;;;;;;7.72;6.93;;;13.40;1.00;;;;;;5112305;28;20229;-76
2023/04/26 05:56:43;;;;;;;9.80;7.75;;;13.50;1.00;;;;;;5111992;28;20244;-69
2023/04/26 05:59:12;;;;;;;9.55;8.18;;;13.50;1.00;;;;;;5110880;28;20251;-70
2023/04/26 06:01:39;;;;;;;9.95;7.35;;;13.50;1.00;;;;;;5110950;28;20612;-69
2023/04/26 06:04:06;;;;;;;7.60;6.63;;;13.60;1.00;;;;;;5111170;28;20212;-71
2023/04/26 06:06:33;;;;;;;8.32;7.53;;;13.70;1.00;;;;;;5111415;28;20261;-71
2023/04/26 06:09:00;;;;;;;8.07;7.28;;;13.80;1.00;;;;;;5112054;28;20236;-70
2023/04/26 06:11:27;;;;;;;8.32;7.53;;;13.80;99.90;;;;;;5111530;28;20220;-71
2023/04/26 06:13:54;;;;;;;6.97;6.38;;;13.90;99.90;;;;;;5112198;28;20224;-71
2023/04/26 06:16:22;;;;;;;8.93;8.13;;;13.90;99.90;;;;;;5112013;27;20730;-70
2023/04/26 06:18:50;;;;;;;7.00;6.40;;;14.00;99.90;;;;;;5111773;28;20248;-72
2023/04/26 06:21:17;;;;;;;7.65;6.10;;;14.00;99.90;;;;;;5112067;28;20213;-72
2023/04/26 06:23:43;;;;;;;7.25;6.45;;;14.10;99.90;;;;;;5111613;28;20232;-72
2023/04/26 06:26:10;;;;;;;11.57;6.88;;;14.10;99.90;;;;;;5111976;28;20251;-72
2023/04/26 06:28:37;;;;;;;6.45;5.85;;;14.10;99.90;;;;;;5111196;28;20247;-71
2023/04/26 06:31:04;;;;;;;6.00;5.40;;;14.10;99.90;;;;;;5111147;27;20201;-70
2023/04/26 06:33:32;;;;;;;6.57;5.20;;;14.20;99.90;;;;;;5109755;28;20230;-69
2023/04/26 06:35:59;;;;;;;8.15;5.32;;;14.30;99.90;;;;;;5107216;28;20236;-69
2023/04/26 06:38:26;;;;;;;7.93;5.45;;;14.30;99.90;;;;;;5111536;28;20253;-72
2023/04/26 06:40:53;;;;;;;13.98;5.93;;;14.30;99.90;;;;;;5111335;28;20687;-72
2023/04/26 06:43:20;;;;;;;6.40;5.80;;;14.20;99.90;;;;;;5111369;28;20314;-72
2023/04/26 06:45:47;;;;;;;6.20;5.60;;;14.30;99.90;;;;;;5110156;28;20672;-72
2023/04/26 06:48:14;;;;;;;6.65;6.05;;;14.30;99.90;;;;;;5112695;27;20235;-71
2023/04/26 06:50:42;;;;;;;6.30;5.68;;;14.40;99.90;;;;;;5110957;27;20236;-71
2023/04/26 06:53:09;;;;;;;5.70;5.05;;;14.40;99.90;;;;;;5112539;27;20235;-72
2023/04/26 06:55:36;;;;;;;4.93;4.15;;;14.50;99.90;;;;;;5115308;27;20205;-69
2023/04/26 06:58:03;;;;;;;5.32;4.43;;;14.50;99.90;;;;;;5110994;28;20295;-71
2023/04/26 07:00:30;;;;;;;5.10;4.70;;;14.50;99.90;;;;;;5110243;28;20634;-70
2023/04/26 07:02:57;;;;;;;5.38;4.85;;;14.50;99.90;;;;;;5109337;28;20259;-71
2023/04/26 07:05:24;;;;;;;5.57;4.88;;;14.40;99.90;;;;;;5112207;27;20211;-71
2023/04/26 07:07:52;;;;;;;5.22;4.72;;;14.40;99.90;;;;;;5109966;28;20205;-70
2023/04/26 07:10:20;;;;;;;6.43;5.82;;;14.40;99.90;;;;;;5111103;28;20247;-70
2023/04/26 07:12:47;;;;;;;6.13;5.18;;;14.50;99.90;;;;;;5110472;28;20205;-70
2023/04/26 07:15:14;;;;;;;7.00;4.75;;;14.60;99.90;;;;;;5110893;28;20237;-70
2023/04/26 07:17:40;;;;;;;4.95;4.53;;;14.70;99.90;;;;;;5109585;28;20253;-71
2023/04/26 07:20:09;;;;;;;5.00;4.50;;;14.70;99.90;;;;;;5110506;28;20251;-68
2023/04/26 07:22:35;;;;;;;4.97;4.50;;;14.90;99.90;;;;;;5110040;28;20232;-71
2023/04/26 07:25:05;;;;;;;4.72;4.32;;;15.00;99.90;;;;;;5110400;28;20247;-68
2023/04/26 07:27:32;;;;;;;4.30;3.90;;;15.10;99.90;;;;;;5109964;28;20257;-69
2023/04/26 07:29:59;;;;;;;7.22;3.70;;;15.20;99.90;;;;;;5110388;28;20588;-69
2023/04/26 07:32:25;;;;;;;5.70;4.60;;;15.10;99.90;;;;;;5109534;28;21178;-69
2023/04/26 07:34:52;;;;;;;4.15;3.85;;;15.30;99.90;;;;;;5110189;28;20255;-69
2023/04/26 07:37:19;;;;;;;4.30;3.92;;;15.40;99.90;;;;;;5110735;28;20215;-69
2023/04/26 07:39:46;;;;;;;4.75;4.35;;;15.50;99.90;;;;;;5108682;28;20251;-69
2023/04/26 07:42:15;;;;;;;4.50;4.07;;;15.60;99.90;;;;;;5115727;28;20306;-69
2023/04/26 07:44:42;;;;;;;4.03;3.60;;;15.70;99.90;;;;;;5110217;28;20262;-68
2023/04/26 07:47:13;;;;;;;5.43;4.72;;;15.80;99.90;;;;;;5109910;28;20639;-67
2023/04/26 07:49:40;;;;;;;6.78;4.32;;;16.00;99.90;;;;;;5109108;28;20727;-69
2023/04/26 07:52:08;;;;;;;4.40;4.10;;;16.00;99.90;;;;;;5110332;28;20593;-69
2023/04/26 07:54:35;;;;;;;6.55;5.93;;;16.10;99.90;;;;;;5112560;28;20232;-69
2023/04/26 07:57:02;;;;;;;5.53;4.18;;;16.20;99.90;;;;;;5115310;27;20240;-69
2023/04/26 07:59:30;;;;;;;6.60;3.88;;;16.10;99.90;;;;;;5113364;28;20205;-69
2023/04/26 08:01:57;;;;;;;6.43;4.43;;;16.00;99.90;;;;;;5113952;28;20241;-69
2023/04/26 08:04:32;;;;;;;4.45;3.88;;;16.00;99.90;;;;;;5113615;28;20237;-69
2023/04/26 08:07:00;;;;;;;6.07;4.13;;;16.10;99.90;;;;;;5106746;28;20204;-68
2023/04/26 08:09:27;;;;;;;4.40;4.00;;;16.20;99.90;;;;;;5113294;28;20205;-69
2023/04/26 08:11:54;;;;;;;4.15;3.75;;;16.20;99.90;;;;;;5113657;28;20743;-69
2023/04/26 08:14:21;;;;;;;4.35;4.05;;;16.20;99.90;;;;;;5113407;28;20760;-68
2023/04/26 08:16:50;;;;;;;4.43;3.95;;;16.30;99.90;;;;;;5117010;27;20286;-69
2023/04/26 08:19:17;;;;;;;4.03;3.72;;;16.30;99.90;;;;;;5111616;28;20244;-68
2023/04/26 08:21:44;;;;;;;4.60;3.47;;;16.50;99.90;;;;;;5109097;28;20213;-69
2023/04/26 08:24:11;;;;;;;4.80;3.40;;;16.30;99.90;;;;;;5110466;28;20732;-70
2023/04/26 08:26:38;;;;;;;4.05;2.97;;;16.20;99.90;;;;;;5109927;28;20232;-69
2023/04/26 08:29:05;;;;;;;3.75;3.45;;;16.00;99.90;;;;;;5112993;28;20240;-69
2023/04/26 08:31:32;;;;;;;3.85;3.55;;;16.00;99.90;;;;;;5112991;28;20205;-69
2023/04/26 08:34:00;;;;;;;3.65;3.28;;;16.00;99.90;;;;;;5113283;28;20247;-68
2023/04/26 08:36:27;;;;;;;3.58;3.28;;;16.00;99.90;;;;;;5109979;27;20240;-68
2023/04/26 08:38:56;;;;;;;6.15;3.58;;;16.10;99.90;;;;;;5118319;27;20244;-68
2023/04/26 08:41:24;;;;;;;4.80;4.00;;;16.20;99.90;;;;;;5112483;28;20680;-69
2023/04/26 08:43:51;;;;;;;6.25;3.70;;;16.40;99.90;;;;;;5112741;28;20225;-69
2023/04/26 08:46:20;;;;;;;3.20;3.00;;;16.60;99.90;;;;;;5113373;28;20204;-68
2023/04/26 08:48:54;;;;;;;4.28;3.88;;;16.60;99.90;;;;;;5113179;28;20575;-68
2023/04/26 08:51:23;;;;;;;7.00;2.88;;;16.50;99.90;;;;;;5112473;28;20228;-69
2023/04/26 08:53:52;;;;;;;7.82;3.70;;;16.40;99.90;;;;;;5113077;28;20292;-69
2023/04/26 08:56:22;;;;;;;5.95;4.60;;;16.50;99.90;;;;;;5113445;28;20229;-69
2023/04/26 08:58:50;;;;;;;7.25;4.57;;;16.80;99.90;;;;;;5112921;28;20233;-69
2023/04/26 09:01:20;;;;;;;7.78;4.43;;;17.20;99.90;;;;;;5112041;28;20692;-68
2023/04/26 09:03:47;;;;;;;5.18;4.78;;;17.20;99.90;;;;;;5113038;28;20228;-69
2023/04/26 09:06:15;;;;;;;5.20;4.38;;;17.20;99.90;;;;;;5112110;28;20211;-72
2023/04/26 09:08:45;;;;;;;4.90;4.25;;;17.00;99.90;;;;;;5112655;28;20289;-68
2023/04/26 09:11:12;;;;;;;5.45;4.68;;;16.90;99.90;;;;;;5112261;28;20695;-72
2023/04/26 09:13:38;;;;;;;4.88;4.47;;;16.80;99.90;;;;;;5110768;28;20228;-68
2023/04/26 09:16:06;;;;;;;4.63;4.10;;;16.80;99.90;;;;;;5102979;28;20279;-69
2023/04/26 09:18:33;;;;;;;6.43;3.95;;;16.70;99.90;;;;;;5103985;28;20289;-69
2023/04/26 09:21:04;;;;;;;4.95;4.55;;;16.60;99.90;;;;;;5112410;28;20197;-72
2023/04/26 09:23:32;;;;;;;8.07;4.10;;;16.50;99.90;;;;;;5103987;28;20268;-69
2023/04/26 09:26:19;;;;;;;4.50;4.10;;;16.40;99.90;;;;;;5112197;28;20205;-70
2023/04/26 09:28:46;;;;;;;5.57;3.95;;;16.30;99.90;;;;;;5106155;28;20673;-71
2023/04/26 09:31:37;;;;;;;5.68;4.30;;;16.20;99.90;;;;;;5112114;28;20212;-73
2023/04/26 09:34:03;;;;;;;5.88;3.30;;;16.20;99.90;;;;;;5112205;28;20211;-67
2023/04/26 09:36:31;;;;;;;5.25;3.35;;;16.10;99.90;;;;;;5110942;28;20254;-72
2023/04/26 09:38:58;;;;;;;4.03;3.60;;;16.00;99.90;;;;;;5111931;28;20582;-67
2023/04/26 09:41:42;;;;;;;3.97;3.53;;;16.00;99.90;;;;;;5107305;28;20644;-71
2023/04/26 09:44:22;;;;;;;4.75;4.18;;;15.90;99.90;;;;;;5112038;28;20275;-74
2023/04/26 09:47:03;;;;;;;8.50;4.32;;;15.90;99.90;;;;;;5112224;28;20292;-67
2023/04/26 09:49:32;;;;;;;4.20;3.80;;;15.90;99.90;;;;;;5110496;28;20288;-68
2023/04/26 09:52:06;;;;;;;4.80;4.22;;;15.90;99.90;;;;;;5112089;28;20244;-68
2023/04/26 09:54:44;;;;;;;5.45;3.80;;;15.90;99.90;;;;;;5101647;28;20249;-68
2023/04/26 09:57:15;;;;;;;3.95;3.63;;;15.90;99.90;;;;;;5111517;28;20212;-70
2023/04/26 09:59:43;;;;;;;4.22;3.83;;;16.00;99.90;;;;;;5111394;28;20228;-69
2023/04/26 10:02:18;;;;;;;4.88;4.35;;;15.90;99.90;;;;;;5111765;28;20905;-69
2023/04/26 10:04:47;;;;;;;5.25;4.85;;;16.00;99.90;;;;;;5108027;28;20208;-68
2023/04/26 10:07:15;;;;;;;6.72;4.10;;;16.00;99.90;;;;;;5111657;28;20755;-68
2023/04/26 10:09:43;;;;;;;4.22;3.40;;;16.10;99.90;;;;;;5110246;28;20333;-68
2023/04/26 10:12:12;;;;;;;4.93;3.72;;;16.10;99.90;;;;;;5110960;28;20213;-68
2023/04/26 10:15:27;;;;;;;4.15;3.75;;;16.50;1.00;;;;;;5107658;27;20528;-70
2023/04/26 10:17:54;;;;;;;9.43;5.53;;;15.50;1.00;;;;;;5093115;28;20291;-69
2023/04/26 10:20:27;;;;;;;4.25;3.58;;;17.10;99.90;;;;;;5082047;28;20240;-70
2023/04/26 10:23:00;;;;;;;4.55;3.50;;;16.70;99.90;;;;;;5093633;28;20233;-68
2023/04/26 10:25:35;;;;;;;3.67;3.25;;;16.90;99.90;;;;;;5090696;28;20210;-68
2023/04/26 10:28:02;;;;;;;2.75;2.50;;;;;;;;;;5099601;28;20700;-69
2023/04/26 10:30:32;;;;;;;4.25;3.28;;;17.40;99.90;;;;;;5096924;28;20254;-68
2023/04/26 10:33:13;;;;;;;6.13;3.88;;;17.50;99.90;;;;;;5092121;28;20216;-69
2023/04/26 10:36:09;;;;;;;4.03;3.63;;;17.60;99.90;;;;;;5097871;28;20209;-69
2023/04/26 10:38:38;;;;;;;4.95;3.50;;;17.60;99.90;;;;;;5093470;28;20208;-69
2023/04/26 10:41:30;;;;;;;2.72;2.53;;;17.80;99.90;;;;;;5093804;28;20233;-69
2023/04/26 10:44:00;;;;;;;3.17;2.83;;;18.10;99.90;;;;;;5091662;28;20218;-69
2023/04/26 10:46:39;;;;;;;1.98;1.88;;;17.90;99.90;;;;;;5096042;28;20218;-69
2023/04/26 10:49:17;;;;;;;2.47;2.20;;;17.80;99.90;;;;;;5098392;28;20288;-69
2023/04/26 10:52:09;;;;;;;5.03;3.50;;;17.60;99.90;;;;;;5088108;28;20689;-69
2023/04/26 10:54:46;;;;;;;2.92;2.63;;;17.60;99.90;;;;;;5093879;28;20282;-68
2023/04/26 10:57:14;;;;;;;2.90;2.70;;;17.70;99.90;;;;;;5097171;28;20233;-69
2023/04/26 11:00:15;;;;;;;3.45;3.15;;;17.70;99.90;;;;;;5099715;28;20243;-68
2023/04/26 11:02:52;;;;;;;2.63;2.42;;;17.80;99.90;;;;;;5097108;28;20212;-69
2023/04/26 11:05:41;;;;;;;2.60;2.40;;;18.00;99.90;;;;;;5086798;28;20697;-69
2023/04/26 11:08:14;;;;;;;4.03;2.47;;;18.30;99.90;;;;;;5098879;28;20217;-71
2023/04/26 11:10:41;;;;;;;3.92;2.60;;;18.50;99.90;;;;;;5095387;28;20271;-69
2023/04/26 11:13:08;;;;;;;3.65;3.35;;;18.60;99.90;;;;;;5093173;28;20243;-69
2023/04/26 11:15:35;;;;;;;11.30;6.65;;;18.50;99.90;;;;;;5097977;28;20260;-69
2023/04/26 11:18:04;;;;;;;4.53;2.80;;;18.40;99.90;;;;;;5088401;28;20285;-68
2023/04/26 11:20:32;;;;;;;3.22;2.83;;;18.40;99.90;;;;;;5089777;28;20246;-69
2023/04/26 11:22:59;;;;;;;3.58;3.08;;;18.10;99.90;;;;;;5094208;28;20233;-68
2023/04/26 11:25:27;;;;;;;3.03;2.83;;;18.00;99.90;;;;;;5090141;28;20355;-69
2023/04/26 11:28:01;;;;;;;1.92;1.83;;;18.10;99.90;;;;;;5079900;28;20604;-68
2023/04/26 11:30:30;;;;;;;4.10;2.40;;;17.90;99.90;;;;;;5088435;28;20276;-69
2023/04/26 11:32:57;;;;;;;2.08;1.88;;;17.80;99.90;;;;;;5078316;28;20206;-68
2023/04/26 11:35:28;;;;;;;1.85;1.67;;;17.80;99.90;;;;;;5083398;28;20315;-68
2023/04/26 11:37:58;;;;;;;1.77;1.67;;;17.80;99.90;;;;;;5081596;28;20754;-68
2023/04/26 11:40:28;;;;;;;2.55;1.88;;;18.10;99.90;;;;;;5075389;28;20238;-68
2023/04/26 11:42:58;;;;;;;2.47;1.63;;;18.30;99.90;;;;;;5085792;28;20712;-68
2023/04/26 11:45:25;;;;;;;3.50;2.00;;;18.30;99.90;;;;;;5073607;28;20218;-68
2023/04/26 11:47:53;;;;;;;1.58;1.48;;;18.20;99.90;;;;;;5053001;28;20238;-69
2023/04/26 11:50:25;;;;;;;2.30;2.13;;;18.30;99.90;;;;;;5052302;28;20209;-68
2023/04/26 11:52:54;;;;;;;4.05;2.45;;;18.00;99.90;;;;;;5057644;28;20234;-69
2023/04/26 11:55:27;;;;;;;8.82;2.67;;;18.10;99.90;;;;;;5085088;28;20234;-69
2023/04/26 11:57:54;;;;;;;6.15;2.40;;;18.00;99.90;;;;;;5069714;28;20234;-68
2023/04/26 12:00:21;;;;;;;2.92;2.40;;;18.00;99.90;;;;;;5079047;28;20245;-68
2023/04/26 12:02:49;;;;;;;5.38;2.47;;;18.30;99.90;;;;;;5082412;28;20703;-69
2023/04/26 12:05:24;;;;;;;4.95;2.50;;;18.50;99.90;;;;;;5080105;28;20292;-69
2023/04/26 12:07:54;;;;;;;2.35;1.83;;;18.60;99.90;;;;;;5081985;28;20237;-68
2023/04/26 12:10:25;;;;;;;3.30;2.95;;;18.50;99.90;;;;;;5080065;28;20194;-68
2023/04/26 12:12:54;;;;;;;2.50;2.05;;;18.40;99.90;;;;;;5081586;28;20662;-68
2023/04/26 12:15:24;;;;;;;3.17;2.05;;;18.20;99.90;;;;;;5084836;28;20229;-68
2023/04/26 12:17:59;;;;;;;1.48;1.35;;;18.40;99.90;;;;;;5081731;28;20210;-69
2023/04/26 12:20:28;;;;;;;2.08;1.92;;;19.20;99.90;;;;;;5081794;28;20208;-68
2023/04/26 12:23:04;;;;;;;1.38;1.27;;;21.50;99.90;;;;;;5082550;28;20232;-68
2023/04/26 12:25:33;;;;;;;1.75;1.65;;;18.60;1.00;;;;;;5079285;28;20198;-68
2023/04/26 12:28:00;;;;;;;3.70;1.88;;;20.80;1.00;;;;;;5080003;28;20210;-68
2023/04/26 12:30:29;;;;;;;2.45;1.95;;;20.10;1.00;;;;;;5084197;28;20214;-72
2023/04/26 12:32:56;;;;;;;2.05;1.85;;;19.70;99.90;;;;;;5082338;28;20647;-71
2023/04/26 12:35:23;;;;;;;2.75;1.42;;;19.80;99.90;;;;;;5078996;28;20260;-73
2023/04/26 12:37:51;;;;;;;4.63;2.00;;;19.80;99.90;;;;;;5080660;28;20245;-70
2023/04/26 12:40:20;;;;;;;1.40;1.30;;;19.80;99.90;;;;;;5081219;28;20210;-72
2023/04/26 12:42:48;;;;;;;3.92;2.85;;;19.50;99.90;;;;;;5081479;28;20209;-73
2023/04/26 12:45:17;;;;;;;1.77;1.60;;;19.40;99.90;;;;;;5079278;28;20297;-73
2023/04/26 12:47:44;;;;;;;2.17;1.98;;;19.40;99.90;;;;;;5080583;28;20209;-68
2023/04/26 12:50:12;;;;;;;1.63;1.52;;;19.30;99.90;;;;;;5077909;28;20300;-68
2023/04/26 12:52:39;;;;;;;2.03;1.77;;;19.40;99.90;;;;;;5081359;28;20202;-68
2023/04/26 12:55:08;;;;;;;2.35;2.15;;;19.50;99.90;;;;;;5080093;28;20221;-68